sensor_id;sensor_type;location;lat;lon;timestamp;P1;durP1;ratioP1;P2;durP2;ratioP2
1336;SDS011;662;48.814;9.318;2022-08-01T00:01:52;3.20;;;2.90;;
1336;SDS011;662;48.814;9.318;2022-08-01T00:04:18;2.63;;;2.43;;
1336;SDS011;662;48.814;9.318;2022-08-01T00:06:43;2.90;;;2.70;;
1336;SDS011;662;48.814;9.318;2022-08-01T00:09:09;3.30;;;2.57;;
1336;SDS011;662;48.814;9.318;2022-08-01T00:11:35;3.23;;;2.50;;
1336;SDS011;662;48.814;9.318;2022-08-01T00:14:00;4.63;;;2.53;;
1336;SDS011;662;48.814;9.318;2022-08-01T00:16:26;2.67;;;2.47;;
1336;SDS011;662;48.814;9.318;2022-08-01T00:18:52;3.57;;;2.90;;
1336;SDS011;662;48.814;9.318;2022-08-01T00:21:18;3.30;;;3.00;;
1336;SDS011;662;48.814;9.318;2022-08-01T00:23:43;3.60;;;2.67;;
1336;SDS011;662;48.814;9.318;2022-08-01T00:26:10;3.30;;;2.53;;
1336;SDS011;662;48.814;9.318;2022-08-01T00:28:37;2.87;;;2.67;;
1336;SDS011;662;48.814;9.318;2022-08-01T00:31:03;3.53;;;2.80;;
1336;SDS011;662;48.814;9.318;2022-08-01T00:33:29;3.53;;;2.90;;
1336;SDS011;662;48.814;9.318;2022-08-01T00:35:54;3.00;;;2.80;;
1336;SDS011;662;48.814;9.318;2022-08-01T00:38:20;6.20;;;2.70;;
1336;SDS011;662;48.814;9.318;2022-08-01T00:40:46;3.17;;;2.63;;
1336;SDS011;662;48.814;9.318;2022-08-01T00:43:12;3.17;;;2.87;;
1336;SDS011;662;48.814;9.318;2022-08-01T00:45:37;3.20;;;2.57;;
1336;SDS011;662;48.814;9.318;2022-08-01T00:48:03;3.23;;;2.93;;
1336;SDS011;662;48.814;9.318;2022-08-01T00:50:29;3.27;;;3.07;;
1336;SDS011;662;48.814;9.318;2022-08-01T00:52:55;3.27;;;2.97;;
1336;SDS011;662;48.814;9.318;2022-08-01T00:55:22;2.87;;;2.67;;
1336;SDS011;662;48.814;9.318;2022-08-01T00:57:48;2.97;;;2.77;;
1336;SDS011;662;48.814;9.318;2022-08-01T01:00:14;5.43;;;3.23;;
1336;SDS011;662;48.814;9.318;2022-08-01T01:02:40;3.10;;;2.77;;
1336;SDS011;662;48.814;9.318;2022-08-01T01:05:06;3.60;;;2.90;;
1336;SDS011;662;48.814;9.318;2022-08-01T01:07:34;3.37;;;2.90;;
1336;SDS011;662;48.814;9.318;2022-08-01T01:10:08;3.13;;;2.90;;
1336;SDS011;662;48.814;9.318;2022-08-01T01:12:43;3.20;;;2.87;;
1336;SDS011;662;48.814;9.318;2022-08-01T01:18:30;2.90;;;2.70;;
1336;SDS011;662;48.814;9.318;2022-08-01T01:21:07;3.80;;;2.80;;
1336;SDS011;662;48.814;9.318;2022-08-01T01:31:57;3.37;;;3.07;;
1336;SDS011;662;48.814;9.318;2022-08-01T01:34:29;3.50;;;3.20;;
1336;SDS011;662;48.814;9.318;2022-08-01T01:37:01;3.50;;;3.20;;
1336;SDS011;662;48.814;9.318;2022-08-01T01:39:29;3.63;;;3.03;;
1336;SDS011;662;48.814;9.318;2022-08-01T01:41:57;3.30;;;3.00;;
1336;SDS011;662;48.814;9.318;2022-08-01T01:44:23;4.50;;;3.47;;
1336;SDS011;662;48.814;9.318;2022-08-01T01:46:51;3.63;;;3.33;;
1336;SDS011;662;48.814;9.318;2022-08-01T01:49:19;3.17;;;2.87;;
1336;SDS011;662;48.814;9.318;2022-08-01T01:51:48;3.57;;;3.27;;
1336;SDS011;662;48.814;9.318;2022-08-01T01:54:16;2.87;;;2.67;;
1336;SDS011;662;48.814;9.318;2022-08-01T01:56:43;5.83;;;3.17;;
1336;SDS011;662;48.814;9.318;2022-08-01T01:59:19;5.40;;;3.60;;
1336;SDS011;662;48.814;9.318;2022-08-01T02:01:49;3.50;;;3.20;;
1336;SDS011;662;48.814;9.318;2022-08-01T02:04:17;3.80;;;3.00;;
1336;SDS011;662;48.814;9.318;2022-08-01T02:06:45;4.13;;;3.40;;
1336;SDS011;662;48.814;9.318;2022-08-01T02:09:12;2.80;;;2.40;;
1336;SDS011;662;48.814;9.318;2022-08-01T02:11:42;3.10;;;2.90;;
1336;SDS011;662;48.814;9.318;2022-08-01T02:14:09;6.43;;;3.47;;
1336;SDS011;662;48.814;9.318;2022-08-01T02:16:36;3.27;;;3.03;;
1336;SDS011;662;48.814;9.318;2022-08-01T02:19:06;3.23;;;3.03;;
1336;SDS011;662;48.814;9.318;2022-08-01T02:21:37;3.67;;;3.37;;
1336;SDS011;662;48.814;9.318;2022-08-01T02:24:14;3.20;;;2.63;;
1336;SDS011;662;48.814;9.318;2022-08-01T02:26:54;3.50;;;3.30;;
1336;SDS011;662;48.814;9.318;2022-08-01T02:29:33;4.17;;;3.30;;
1336;SDS011;662;48.814;9.318;2022-08-01T02:32:04;5.13;;;3.40;;
1336;SDS011;662;48.814;9.318;2022-08-01T02:34:32;4.53;;;3.47;;
1336;SDS011;662;48.814;9.318;2022-08-01T02:37:00;2.87;;;2.67;;
1336;SDS011;662;48.814;9.318;2022-08-01T02:39:28;3.40;;;3.17;;
1336;SDS011;662;48.814;9.318;2022-08-01T02:41:59;3.77;;;3.00;;
1336;SDS011;662;48.814;9.318;2022-08-01T02:44:33;3.40;;;3.20;;
1336;SDS011;662;48.814;9.318;2022-08-01T02:47:02;3.60;;;3.30;;
1336;SDS011;662;48.814;9.318;2022-08-01T02:49:30;3.60;;;3.30;;
1336;SDS011;662;48.814;9.318;2022-08-01T02:51:58;3.23;;;2.97;;
1336;SDS011;662;48.814;9.318;2022-08-01T02:54:26;3.87;;;3.20;;
1336;SDS011;662;48.814;9.318;2022-08-01T02:56:54;3.53;;;3.23;;
1336;SDS011;662;48.814;9.318;2022-08-01T02:59:21;3.20;;;2.90;;
1336;SDS011;662;48.814;9.318;2022-08-01T03:01:51;3.53;;;3.10;;
1336;SDS011;662;48.814;9.318;2022-08-01T03:04:20;3.60;;;3.30;;
1336;SDS011;662;48.814;9.318;2022-08-01T03:06:47;3.43;;;3.23;;
1336;SDS011;662;48.814;9.318;2022-08-01T03:09:14;3.33;;;3.03;;
1336;SDS011;662;48.814;9.318;2022-08-01T03:11:43;3.40;;;3.20;;
1336;SDS011;662;48.814;9.318;2022-08-01T03:14:10;5.43;;;3.50;;
1336;SDS011;662;48.814;9.318;2022-08-01T03:16:38;3.43;;;3.17;;
1336;SDS011;662;48.814;9.318;2022-08-01T03:19:07;3.57;;;3.27;;
1336;SDS011;662;48.814;9.318;2022-08-01T03:21:34;3.80;;;3.13;;
1336;SDS011;662;48.814;9.318;2022-08-01T03:24:02;4.73;;;3.73;;
1336;SDS011;662;48.814;9.318;2022-08-01T03:26:30;3.90;;;3.60;;
1336;SDS011;662;48.814;9.318;2022-08-01T03:29:02;3.70;;;3.40;;
1336;SDS011;662;48.814;9.318;2022-08-01T03:31:34;5.47;;;3.33;;
1336;SDS011;662;48.814;9.318;2022-08-01T03:34:01;3.07;;;2.87;;
1336;SDS011;662;48.814;9.318;2022-08-01T03:36:28;3.23;;;2.93;;
1336;SDS011;662;48.814;9.318;2022-08-01T03:38:56;5.83;;;3.40;;
1336;SDS011;662;48.814;9.318;2022-08-01T03:41:26;3.13;;;2.93;;
1336;SDS011;662;48.814;9.318;2022-08-01T03:43:57;3.37;;;3.07;;
1336;SDS011;662;48.814;9.318;2022-08-01T03:46:31;4.37;;;3.50;;
1336;SDS011;662;48.814;9.318;2022-08-01T03:49:01;5.20;;;3.53;;
1336;SDS011;662;48.814;9.318;2022-08-01T03:51:31;4.50;;;3.60;;
1336;SDS011;662;48.814;9.318;2022-08-01T03:53:58;3.70;;;3.40;;
1336;SDS011;662;48.814;9.318;2022-08-01T03:56:26;4.20;;;3.50;;
1336;SDS011;662;48.814;9.318;2022-08-01T03:58:56;5.77;;;3.40;;
1336;SDS011;662;48.814;9.318;2022-08-01T04:01:24;3.30;;;3.00;;
1336;SDS011;662;48.814;9.318;2022-08-01T04:03:51;3.07;;;2.80;;
1336;SDS011;662;48.814;9.318;2022-08-01T04:06:16;3.93;;;3.53;;
1336;SDS011;662;48.814;9.318;2022-08-01T04:08:42;5.47;;;3.30;;
1336;SDS011;662;48.814;9.318;2022-08-01T04:11:20;3.63;;;3.27;;
1336;SDS011;662;48.814;9.318;2022-08-01T04:13:46;3.03;;;2.83;;
1336;SDS011;662;48.814;9.318;2022-08-01T04:16:12;6.90;;;3.00;;
1336;SDS011;662;48.814;9.318;2022-08-01T04:18:37;4.10;;;2.93;;
1336;SDS011;662;48.814;9.318;2022-08-01T04:21:03;5.20;;;3.90;;
1336;SDS011;662;48.814;9.318;2022-08-01T04:23:28;7.33;;;3.70;;
1336;SDS011;662;48.814;9.318;2022-08-01T04:25:56;3.90;;;3.60;;
1336;SDS011;662;48.814;9.318;2022-08-01T04:28:23;8.33;;;4.00;;
1336;SDS011;662;48.814;9.318;2022-08-01T04:30:50;4.67;;;3.67;;
1336;SDS011;662;48.814;9.318;2022-08-01T04:33:19;4.53;;;3.90;;
1336;SDS011;662;48.814;9.318;2022-08-01T04:35:45;5.83;;;4.17;;
1336;SDS011;662;48.814;9.318;2022-08-01T04:38:13;4.70;;;4.30;;
1336;SDS011;662;48.814;9.318;2022-08-01T04:40:43;7.87;;;4.30;;
1336;SDS011;662;48.814;9.318;2022-08-01T04:43:12;4.93;;;4.40;;
1336;SDS011;662;48.814;9.318;2022-08-01T04:45:38;8.07;;;4.20;;
1336;SDS011;662;48.814;9.318;2022-08-01T04:48:05;4.43;;;4.03;;
1336;SDS011;662;48.814;9.318;2022-08-01T04:50:32;4.50;;;4.10;;
1336;SDS011;662;48.814;9.318;2022-08-01T04:52:59;10.40;;;4.80;;
1336;SDS011;662;48.814;9.318;2022-08-01T04:55:28;6.83;;;4.40;;
1336;SDS011;662;48.814;9.318;2022-08-01T04:57:53;4.07;;;3.67;;
1336;SDS011;662;48.814;9.318;2022-08-01T05:00:19;5.93;;;4.90;;
1336;SDS011;662;48.814;9.318;2022-08-01T05:02:45;4.20;;;3.90;;
1336;SDS011;662;48.814;9.318;2022-08-01T05:05:11;6.43;;;5.10;;
1336;SDS011;662;48.814;9.318;2022-08-01T05:07:37;4.93;;;4.30;;
1336;SDS011;662;48.814;9.318;2022-08-01T05:10:03;5.27;;;4.27;;
1336;SDS011;662;48.814;9.318;2022-08-01T05:12:30;4.20;;;3.80;;
1336;SDS011;662;48.814;9.318;2022-08-01T05:14:57;4.07;;;3.73;;
1336;SDS011;662;48.814;9.318;2022-08-01T05:17:23;5.67;;;4.50;;
1336;SDS011;662;48.814;9.318;2022-08-01T05:19:49;5.10;;;4.53;;
1336;SDS011;662;48.814;9.318;2022-08-01T05:22:14;6.60;;;5.10;;
1336;SDS011;662;48.814;9.318;2022-08-01T05:24:40;5.87;;;4.70;;
1336;SDS011;662;48.814;9.318;2022-08-01T05:27:07;5.50;;;4.90;;
1336;SDS011;662;48.814;9.318;2022-08-01T05:29:32;5.30;;;4.80;;
1336;SDS011;662;48.814;9.318;2022-08-01T05:31:59;8.90;;;4.13;;
1336;SDS011;662;48.814;9.318;2022-08-01T05:34:24;6.30;;;4.60;;
1336;SDS011;662;48.814;9.318;2022-08-01T05:36:51;5.20;;;4.70;;
1336;SDS011;662;48.814;9.318;2022-08-01T05:39:16;4.50;;;4.07;;
1336;SDS011;662;48.814;9.318;2022-08-01T05:41:42;4.30;;;3.90;;
1336;SDS011;662;48.814;9.318;2022-08-01T05:44:08;5.00;;;4.50;;
1336;SDS011;662;48.814;9.318;2022-08-01T05:46:34;5.30;;;4.27;;
1336;SDS011;662;48.814;9.318;2022-08-01T05:49:01;6.77;;;4.33;;
1336;SDS011;662;48.814;9.318;2022-08-01T05:51:27;7.40;;;4.27;;
1336;SDS011;662;48.814;9.318;2022-08-01T05:53:54;6.73;;;4.67;;
1336;SDS011;662;48.814;9.318;2022-08-01T05:56:20;5.83;;;5.10;;
1336;SDS011;662;48.814;9.318;2022-08-01T05:58:46;7.73;;;4.50;;
1336;SDS011;662;48.814;9.318;2022-08-01T06:01:12;6.53;;;4.70;;
1336;SDS011;662;48.814;9.318;2022-08-01T06:03:38;4.50;;;4.10;;
1336;SDS011;662;48.814;9.318;2022-08-01T06:06:03;4.17;;;3.87;;
1336;SDS011;662;48.814;9.318;2022-08-01T06:08:29;3.57;;;3.27;;
1336;SDS011;662;48.814;9.318;2022-08-01T06:10:56;4.43;;;4.00;;
1336;SDS011;662;48.814;9.318;2022-08-01T06:13:22;4.40;;;4.00;;
1336;SDS011;662;48.814;9.318;2022-08-01T06:15:48;5.00;;;4.37;;
1336;SDS011;662;48.814;9.318;2022-08-01T06:18:14;6.40;;;3.30;;
1336;SDS011;662;48.814;9.318;2022-08-01T06:20:40;2.70;;;2.40;;
1336;SDS011;662;48.814;9.318;2022-08-01T06:23:06;2.70;;;2.50;;
1336;SDS011;662;48.814;9.318;2022-08-01T06:25:32;2.77;;;2.20;;
1336;SDS011;662;48.814;9.318;2022-08-01T06:27:58;2.67;;;2.30;;
1336;SDS011;662;48.814;9.318;2022-08-01T06:30:24;2.33;;;2.13;;
1336;SDS011;662;48.814;9.318;2022-08-01T06:32:50;2.83;;;2.53;;
1336;SDS011;662;48.814;9.318;2022-08-01T06:35:16;1.87;;;1.77;;
1336;SDS011;662;48.814;9.318;2022-08-01T06:37:42;1.87;;;1.70;;
1336;SDS011;662;48.814;9.318;2022-08-01T06:40:10;1.93;;;1.73;;
1336;SDS011;662;48.814;9.318;2022-08-01T06:42:37;2.00;;;1.50;;
1336;SDS011;662;48.814;9.318;2022-08-01T06:45:06;2.30;;;2.00;;
1336;SDS011;662;48.814;9.318;2022-08-01T06:47:32;2.77;;;1.70;;
1336;SDS011;662;48.814;9.318;2022-08-01T06:49:58;1.60;;;1.50;;
1336;SDS011;662;48.814;9.318;2022-08-01T06:52:24;2.00;;;1.80;;
1336;SDS011;662;48.814;9.318;2022-08-01T06:54:50;2.03;;;1.70;;
1336;SDS011;662;48.814;9.318;2022-08-01T06:57:16;1.63;;;1.53;;
1336;SDS011;662;48.814;9.318;2022-08-01T06:59:41;2.13;;;1.50;;
1336;SDS011;662;48.814;9.318;2022-08-01T07:02:07;2.70;;;1.70;;
1336;SDS011;662;48.814;9.318;2022-08-01T07:04:33;2.50;;;1.80;;
1336;SDS011;662;48.814;9.318;2022-08-01T07:06:58;2.50;;;1.70;;
1336;SDS011;662;48.814;9.318;2022-08-01T07:09:24;2.90;;;1.87;;
1336;SDS011;662;48.814;9.318;2022-08-01T07:11:50;1.73;;;1.63;;
1336;SDS011;662;48.814;9.318;2022-08-01T07:14:17;1.63;;;1.53;;
1336;SDS011;662;48.814;9.318;2022-08-01T07:16:43;3.53;;;2.00;;
1336;SDS011;662;48.814;9.318;2022-08-01T07:19:09;2.60;;;2.17;;
1336;SDS011;662;48.814;9.318;2022-08-01T07:21:34;3.60;;;1.83;;
1336;SDS011;662;48.814;9.318;2022-08-01T07:24:00;2.00;;;1.63;;
1336;SDS011;662;48.814;9.318;2022-08-01T07:26:26;2.20;;;1.93;;
1336;SDS011;662;48.814;9.318;2022-08-01T07:28:52;2.53;;;1.70;;
1336;SDS011;662;48.814;9.318;2022-08-01T07:31:18;2.30;;;1.67;;
1336;SDS011;662;48.814;9.318;2022-08-01T07:33:44;2.13;;;2.03;;
1336;SDS011;662;48.814;9.318;2022-08-01T07:36:10;2.00;;;1.80;;
1336;SDS011;662;48.814;9.318;2022-08-01T07:38:35;2.10;;;1.80;;
1336;SDS011;662;48.814;9.318;2022-08-01T07:41:01;1.80;;;1.70;;
1336;SDS011;662;48.814;9.318;2022-08-01T07:43:27;3.00;;;2.47;;
1336;SDS011;662;48.814;9.318;2022-08-01T07:45:53;2.20;;;1.77;;
1336;SDS011;662;48.814;9.318;2022-08-01T07:48:18;1.70;;;1.60;;
1336;SDS011;662;48.814;9.318;2022-08-01T07:50:48;1.73;;;1.63;;
1336;SDS011;662;48.814;9.318;2022-08-01T07:53:17;1.60;;;1.50;;
1336;SDS011;662;48.814;9.318;2022-08-01T07:55:42;2.37;;;2.10;;
1336;SDS011;662;48.814;9.318;2022-08-01T07:58:08;2.00;;;1.90;;
1336;SDS011;662;48.814;9.318;2022-08-01T08:00:34;2.77;;;2.10;;
1336;SDS011;662;48.814;9.318;2022-08-01T08:02:59;1.97;;;1.77;;
1336;SDS011;662;48.814;9.318;2022-08-01T08:05:26;7.30;;;2.57;;
1336;SDS011;662;48.814;9.318;2022-08-01T08:07:52;2.30;;;1.93;;
1336;SDS011;662;48.814;9.318;2022-08-01T08:10:17;3.27;;;2.57;;
1336;SDS011;662;48.814;9.318;2022-08-01T08:12:43;3.63;;;2.10;;
1336;SDS011;662;48.814;9.318;2022-08-01T08:15:09;4.80;;;2.27;;
1336;SDS011;662;48.814;9.318;2022-08-01T08:17:34;3.43;;;2.13;;
1336;SDS011;662;48.814;9.318;2022-08-01T08:20:00;2.10;;;2.00;;
1336;SDS011;662;48.814;9.318;2022-08-01T08:22:27;4.83;;;2.10;;
1336;SDS011;662;48.814;9.318;2022-08-01T08:24:53;2.40;;;2.20;;
1336;SDS011;662;48.814;9.318;2022-08-01T08:27:18;4.33;;;2.10;;
1336;SDS011;662;48.814;9.318;2022-08-01T08:29:44;7.23;;;2.70;;
1336;SDS011;662;48.814;9.318;2022-08-01T08:32:09;2.17;;;1.87;;
1336;SDS011;662;48.814;9.318;2022-08-01T08:34:35;3.27;;;2.17;;
1336;SDS011;662;48.814;9.318;2022-08-01T08:37:01;2.60;;;2.33;;
1336;SDS011;662;48.814;9.318;2022-08-01T08:39:27;3.40;;;2.60;;
1336;SDS011;662;48.814;9.318;2022-08-01T08:41:54;4.30;;;2.57;;
1336;SDS011;662;48.814;9.318;2022-08-01T08:44:22;3.90;;;2.83;;
1336;SDS011;662;48.814;9.318;2022-08-01T08:46:49;4.50;;;3.07;;
1336;SDS011;662;48.814;9.318;2022-08-01T08:49:17;3.43;;;2.47;;
1336;SDS011;662;48.814;9.318;2022-08-01T08:51:45;2.40;;;2.20;;
1336;SDS011;662;48.814;9.318;2022-08-01T08:54:14;6.10;;;2.07;;
1336;SDS011;662;48.814;9.318;2022-08-01T08:56:40;4.90;;;2.67;;
1336;SDS011;662;48.814;9.318;2022-08-01T08:59:07;2.60;;;2.40;;
1336;SDS011;662;48.814;9.318;2022-08-01T09:01:32;2.73;;;2.53;;
1336;SDS011;662;48.814;9.318;2022-08-01T09:03:59;2.40;;;2.20;;
1336;SDS011;662;48.814;9.318;2022-08-01T09:06:26;3.33;;;2.57;;
1336;SDS011;662;48.814;9.318;2022-08-01T09:08:53;3.77;;;2.40;;
1336;SDS011;662;48.814;9.318;2022-08-01T09:11:18;9.63;;;2.57;;
1336;SDS011;662;48.814;9.318;2022-08-01T09:16:42;5.77;;;1.90;;
1336;SDS011;662;48.814;9.318;2022-08-01T09:21:37;3.13;;;2.03;;
1336;SDS011;662;48.814;9.318;2022-08-01T09:24:03;2.60;;;2.13;;
1336;SDS011;662;48.814;9.318;2022-08-01T09:26:38;2.40;;;2.20;;
1336;SDS011;662;48.814;9.318;2022-08-01T09:29:05;2.57;;;2.30;;
1336;SDS011;662;48.814;9.318;2022-08-01T09:31:39;2.80;;;2.40;;
1336;SDS011;662;48.814;9.318;2022-08-01T09:34:06;3.07;;;2.77;;
1336;SDS011;662;48.814;9.318;2022-08-01T09:36:47;3.17;;;2.47;;
1336;SDS011;662;48.814;9.318;2022-08-01T09:39:17;3.00;;;2.80;;
1336;SDS011;662;48.814;9.318;2022-08-01T09:41:44;2.90;;;2.57;;
1336;SDS011;662;48.814;9.318;2022-08-01T09:44:09;2.60;;;2.40;;
1336;SDS011;662;48.814;9.318;2022-08-01T09:46:35;3.00;;;2.80;;
1336;SDS011;662;48.814;9.318;2022-08-01T09:49:05;2.87;;;2.60;;
1336;SDS011;662;48.814;9.318;2022-08-01T09:51:35;5.03;;;2.63;;
1336;SDS011;662;48.814;9.318;2022-08-01T09:54:02;7.97;;;3.90;;
1336;SDS011;662;48.814;9.318;2022-08-01T09:56:39;3.00;;;2.80;;
1336;SDS011;662;48.814;9.318;2022-08-01T09:59:07;3.23;;;2.93;;
1336;SDS011;662;48.814;9.318;2022-08-01T10:01:47;4.90;;;3.60;;
1336;SDS011;662;48.814;9.318;2022-08-01T10:04:15;3.87;;;3.50;;
1336;SDS011;662;48.814;9.318;2022-08-01T10:06:46;3.63;;;3.33;;
1336;SDS011;662;48.814;9.318;2022-08-01T10:09:25;4.60;;;3.63;;
1336;SDS011;662;48.814;9.318;2022-08-01T10:11:52;6.53;;;4.10;;
1336;SDS011;662;48.814;9.318;2022-08-01T10:14:20;4.30;;;3.90;;
1336;SDS011;662;48.814;9.318;2022-08-01T10:16:49;4.23;;;3.90;;
1336;SDS011;662;48.814;9.318;2022-08-01T10:19:18;4.37;;;4.07;;
1336;SDS011;662;48.814;9.318;2022-08-01T10:21:48;5.00;;;4.47;;
1336;SDS011;662;48.814;9.318;2022-08-01T10:24:22;4.47;;;3.80;;
1336;SDS011;662;48.814;9.318;2022-08-01T10:26:51;3.80;;;3.50;;
1336;SDS011;662;48.814;9.318;2022-08-01T10:29:20;4.47;;;4.07;;
1336;SDS011;662;48.814;9.318;2022-08-01T10:31:49;4.23;;;3.80;;
1336;SDS011;662;48.814;9.318;2022-08-01T10:34:16;3.50;;;3.20;;
1336;SDS011;662;48.814;9.318;2022-08-01T10:36:46;3.87;;;3.57;;
1336;SDS011;662;48.814;9.318;2022-08-01T10:39:13;3.30;;;3.10;;
1336;SDS011;662;48.814;9.318;2022-08-01T10:41:39;5.00;;;3.50;;
1336;SDS011;662;48.814;9.318;2022-08-01T10:44:08;3.23;;;3.03;;
1336;SDS011;662;48.814;9.318;2022-08-01T10:46:57;5.50;;;3.10;;
1336;SDS011;662;48.814;9.318;2022-08-01T10:49:36;5.20;;;3.23;;
1336;SDS011;662;48.814;9.318;2022-08-01T10:52:35;2.97;;;2.77;;
1336;SDS011;662;48.814;9.318;2022-08-01T10:59:47;2.97;;;2.77;;
1336;SDS011;662;48.814;9.318;2022-08-01T11:06:01;3.80;;;3.40;;
1336;SDS011;662;48.814;9.318;2022-08-01T11:09:20;3.60;;;3.30;;
1336;SDS011;662;48.814;9.318;2022-08-01T11:20:34;3.40;;;2.70;;
1336;SDS011;662;48.814;9.318;2022-08-01T11:26:09;3.05;;;2.85;;
1336;SDS011;662;48.814;9.318;2022-08-01T11:29:12;4.15;;;3.15;;
1336;SDS011;662;48.814;9.318;2022-08-01T11:31:49;2.75;;;2.55;;
1336;SDS011;662;48.814;9.318;2022-08-01T11:34:54;2.90;;;2.50;;
1336;SDS011;662;48.814;9.318;2022-08-01T11:37:46;2.72;;;2.55;;
1336;SDS011;662;48.814;9.318;2022-08-01T11:45:49;2.85;;;2.65;;
1336;SDS011;662;48.814;9.318;2022-08-01T11:48:21;2.58;;;2.38;;
1336;SDS011;662;48.814;9.318;2022-08-01T11:50:51;2.60;;;2.40;;
1336;SDS011;662;48.814;9.318;2022-08-01T11:53:18;2.60;;;2.25;;
1336;SDS011;662;48.814;9.318;2022-08-01T11:55:50;2.28;;;2.08;;
1336;SDS011;662;48.814;9.318;2022-08-01T11:58:22;4.70;;;2.40;;
1336;SDS011;662;48.814;9.318;2022-08-01T12:00:52;3.22;;;1.95;;
1336;SDS011;662;48.814;9.318;2022-08-01T12:03:29;3.10;;;2.78;;
1336;SDS011;662;48.814;9.318;2022-08-01T12:05:57;4.37;;;2.60;;
1336;SDS011;662;48.814;9.318;2022-08-01T12:10:56;3.20;;;2.40;;
1336;SDS011;662;48.814;9.318;2022-08-01T12:13:22;4.33;;;2.63;;
1336;SDS011;662;48.814;9.318;2022-08-01T12:15:48;2.83;;;2.63;;
1336;SDS011;662;48.814;9.318;2022-08-01T12:18:15;2.23;;;2.07;;
1336;SDS011;662;48.814;9.318;2022-08-01T12:20:42;2.60;;;2.40;;
1336;SDS011;662;48.814;9.318;2022-08-01T12:23:12;2.63;;;2.43;;
1336;SDS011;662;48.814;9.318;2022-08-01T12:25:40;2.80;;;2.60;;
1336;SDS011;662;48.814;9.318;2022-08-01T12:28:10;3.03;;;2.83;;
1336;SDS011;662;48.814;9.318;2022-08-01T12:30:39;6.20;;;2.80;;
1336;SDS011;662;48.814;9.318;2022-08-01T12:33:09;4.82;;;3.00;;
1336;SDS011;662;48.814;9.318;2022-08-01T12:35:35;2.65;;;2.30;;
1336;SDS011;662;48.814;9.318;2022-08-01T12:38:06;2.67;;;2.55;;
1336;SDS011;662;48.814;9.318;2022-08-01T12:40:40;2.45;;;2.25;;
1336;SDS011;662;48.814;9.318;2022-08-01T12:43:08;4.20;;;2.60;;
1336;SDS011;662;48.814;9.318;2022-08-01T12:45:35;2.70;;;2.33;;
1336;SDS011;662;48.814;9.318;2022-08-01T12:48:07;2.60;;;2.40;;
1336;SDS011;662;48.814;9.318;2022-08-01T12:50:38;3.80;;;2.20;;
1336;SDS011;662;48.814;9.318;2022-08-01T12:53:07;5.73;;;3.80;;
1336;SDS011;662;48.814;9.318;2022-08-01T12:55:33;3.27;;;2.70;;
1336;SDS011;662;48.814;9.318;2022-08-01T12:58:13;6.50;;;2.43;;
1336;SDS011;662;48.814;9.318;2022-08-01T13:00:41;4.03;;;2.70;;
1336;SDS011;662;48.814;9.318;2022-08-01T13:03:16;2.40;;;2.30;;
1336;SDS011;662;48.814;9.318;2022-08-01T13:05:47;2.40;;;2.30;;
1336;SDS011;662;48.814;9.318;2022-08-01T13:13:34;5.07;;;2.80;;
1336;SDS011;662;48.814;9.318;2022-08-01T13:16:06;2.40;;;2.20;;
1336;SDS011;662;48.814;9.318;2022-08-01T13:18:33;8.63;;;2.47;;
1336;SDS011;662;48.814;9.318;2022-08-01T13:21:10;2.27;;;2.17;;
1336;SDS011;662;48.814;9.318;2022-08-01T13:26:48;2.43;;;2.23;;
1336;SDS011;662;48.814;9.318;2022-08-01T13:29:23;2.50;;;2.30;;
1336;SDS011;662;48.814;9.318;2022-08-01T13:31:53;2.80;;;2.53;;
1336;SDS011;662;48.814;9.318;2022-08-01T13:34:28;3.83;;;2.50;;
1336;SDS011;662;48.814;9.318;2022-08-01T13:36:55;2.47;;;2.23;;
1336;SDS011;662;48.814;9.318;2022-08-01T13:39:21;4.40;;;2.07;;
1336;SDS011;662;48.814;9.318;2022-08-01T13:42:05;1.90;;;1.80;;
1336;SDS011;662;48.814;9.318;2022-08-01T13:44:32;3.10;;;2.60;;
1336;SDS011;662;48.814;9.318;2022-08-01T13:46:57;3.83;;;2.27;;
1336;SDS011;662;48.814;9.318;2022-08-01T13:49:23;3.47;;;2.50;;
1336;SDS011;662;48.814;9.318;2022-08-01T13:51:49;2.80;;;2.60;;
1336;SDS011;662;48.814;9.318;2022-08-01T13:54:15;2.50;;;2.23;;
1336;SDS011;662;48.814;9.318;2022-08-01T13:56:41;3.27;;;2.37;;
1336;SDS011;662;48.814;9.318;2022-08-01T13:59:07;2.13;;;2.00;;
1336;SDS011;662;48.814;9.318;2022-08-01T14:01:33;2.93;;;2.23;;
1336;SDS011;662;48.814;9.318;2022-08-01T14:03:59;3.13;;;2.10;;
1336;SDS011;662;48.814;9.318;2022-08-01T14:06:25;3.10;;;2.70;;
1336;SDS011;662;48.814;9.318;2022-08-01T14:08:50;2.40;;;2.10;;
1336;SDS011;662;48.814;9.318;2022-08-01T14:11:16;2.40;;;2.07;;
1336;SDS011;662;48.814;9.318;2022-08-01T14:13:42;2.33;;;1.93;;
1336;SDS011;662;48.814;9.318;2022-08-01T14:16:08;2.60;;;2.10;;
1336;SDS011;662;48.814;9.318;2022-08-01T14:18:34;3.70;;;2.00;;
1336;SDS011;662;48.814;9.318;2022-08-01T14:20:59;5.00;;;1.90;;
1336;SDS011;662;48.814;9.318;2022-08-01T14:23:25;2.40;;;2.20;;
1336;SDS011;662;48.814;9.318;2022-08-01T14:25:51;2.20;;;2.00;;
1336;SDS011;662;48.814;9.318;2022-08-01T14:28:17;3.83;;;2.07;;
1336;SDS011;662;48.814;9.318;2022-08-01T14:30:43;2.23;;;2.03;;
1336;SDS011;662;48.814;9.318;2022-08-01T14:33:12;2.20;;;2.00;;
1336;SDS011;662;48.814;9.318;2022-08-01T14:35:38;2.33;;;2.20;;
1336;SDS011;662;48.814;9.318;2022-08-01T14:38:04;2.30;;;2.10;;
1336;SDS011;662;48.814;9.318;2022-08-01T14:40:30;3.20;;;2.40;;
1336;SDS011;662;48.814;9.318;2022-08-01T14:42:56;2.30;;;2.03;;
1336;SDS011;662;48.814;9.318;2022-08-01T14:45:21;2.80;;;2.50;;
1336;SDS011;662;48.814;9.318;2022-08-01T14:47:47;2.23;;;1.93;;
1336;SDS011;662;48.814;9.318;2022-08-01T14:50:13;2.60;;;2.40;;
1336;SDS011;662;48.814;9.318;2022-08-01T14:52:40;4.10;;;2.90;;
1336;SDS011;662;48.814;9.318;2022-08-01T14:55:07;3.23;;;2.37;;
1336;SDS011;662;48.814;9.318;2022-08-01T14:57:34;2.70;;;2.50;;
1336;SDS011;662;48.814;9.318;2022-08-01T15:00:00;2.07;;;1.80;;
1336;SDS011;662;48.814;9.318;2022-08-01T15:02:26;2.57;;;2.30;;
1336;SDS011;662;48.814;9.318;2022-08-01T15:04:52;3.33;;;2.20;;
1336;SDS011;662;48.814;9.318;2022-08-01T15:07:18;3.43;;;2.23;;
1336;SDS011;662;48.814;9.318;2022-08-01T15:09:47;1.90;;;1.80;;
1336;SDS011;662;48.814;9.318;2022-08-01T15:12:13;2.40;;;2.20;;
1336;SDS011;662;48.814;9.318;2022-08-01T15:14:39;2.90;;;2.60;;
1336;SDS011;662;48.814;9.318;2022-08-01T15:19:42;3.73;;;2.37;;
1336;SDS011;662;48.814;9.318;2022-08-01T15:22:08;3.23;;;2.27;;
1336;SDS011;662;48.814;9.318;2022-08-01T15:24:34;3.10;;;2.53;;
1336;SDS011;662;48.814;9.318;2022-08-01T15:26:59;4.30;;;2.20;;
1336;SDS011;662;48.814;9.318;2022-08-01T15:29:25;2.93;;;2.23;;
1336;SDS011;662;48.814;9.318;2022-08-01T15:31:51;2.60;;;2.40;;
1336;SDS011;662;48.814;9.318;2022-08-01T15:34:16;2.73;;;2.53;;
1336;SDS011;662;48.814;9.318;2022-08-01T15:36:42;2.50;;;2.30;;
1336;SDS011;662;48.814;9.318;2022-08-01T15:39:09;4.00;;;2.20;;
1336;SDS011;662;48.814;9.318;2022-08-01T15:41:35;2.03;;;1.93;;
1336;SDS011;662;48.814;9.318;2022-08-01T15:44:00;3.00;;;2.10;;
1336;SDS011;662;48.814;9.318;2022-08-01T15:46:26;3.20;;;2.50;;
1336;SDS011;662;48.814;9.318;2022-08-01T15:48:52;2.47;;;2.27;;
1336;SDS011;662;48.814;9.318;2022-08-01T15:51:17;2.67;;;2.47;;
1336;SDS011;662;48.814;9.318;2022-08-01T15:53:43;3.57;;;2.20;;
1336;SDS011;662;48.814;9.318;2022-08-01T15:56:11;2.83;;;2.43;;
1336;SDS011;662;48.814;9.318;2022-08-01T15:58:37;3.30;;;2.03;;
1336;SDS011;662;48.814;9.318;2022-08-01T16:01:02;2.00;;;1.90;;
1336;SDS011;662;48.814;9.318;2022-08-01T16:03:28;3.07;;;2.20;;
1336;SDS011;662;48.814;9.318;2022-08-01T16:05:54;2.37;;;1.80;;
1336;SDS011;662;48.814;9.318;2022-08-01T16:08:19;2.40;;;2.20;;
1336;SDS011;662;48.814;9.318;2022-08-01T16:10:45;2.50;;;1.77;;
1336;SDS011;662;48.814;9.318;2022-08-01T16:13:11;3.27;;;1.80;;
1336;SDS011;662;48.814;9.318;2022-08-01T16:15:36;2.90;;;2.00;;
1336;SDS011;662;48.814;9.318;2022-08-01T16:18:06;2.07;;;1.87;;
1336;SDS011;662;48.814;9.318;2022-08-01T16:20:33;3.90;;;1.70;;
1336;SDS011;662;48.814;9.318;2022-08-01T16:22:59;1.97;;;1.87;;
1336;SDS011;662;48.814;9.318;2022-08-01T16:25:25;2.37;;;1.70;;
1336;SDS011;662;48.814;9.318;2022-08-01T16:27:51;1.97;;;1.60;;
1336;SDS011;662;48.814;9.318;2022-08-01T16:30:17;1.93;;;1.70;;
1336;SDS011;662;48.814;9.318;2022-08-01T16:32:42;2.23;;;2.03;;